Time;durP1;ratioP1;P1;durP2;ratioP2;P2;SDS_P1;SDS_P2;PMS_P1;PMS_P2;Temp;Humidity;BMP_temperature;BMP_pressure;BME280_temperature;BME280_humidity;BME280_pressure;Samples;Min_cycle;Max_cycle;Signal;HPM_P1;HPM_P2
2021/10/08 00:02:01;;;;;;;6.15;4.68;;;9.60;92.50;;;;;;4895293;29;20113;-89
2021/10/08 00:04:27;;;;;;;7.68;5.53;;;9.50;92.50;;;;;;4894430;29;20068;-90
2021/10/08 00:06:52;;;;;;;8.30;5.25;;;9.60;92.60;;;;;;4893666;29;20028;-90
2021/10/08 00:09:18;;;;;;;7.57;4.82;;;9.50;92.50;;;;;;4891424;29;20028;-89
2021/10/08 00:11:44;;;;;;;6.28;4.72;;;9.60;92.60;;;;;;4887450;29;20494;-90
2021/10/08 00:14:10;;;;;;;7.03;4.90;;;9.50;92.50;;;;;;4894419;29;20068;-89
2021/10/08 00:16:35;;;;;;;7.85;5.30;;;9.50;92.50;;;;;;4895033;29;20476;-90
2021/10/08 00:19:01;;;;;;;6.40;5.20;;;9.50;92.50;;;;;;4894404;29;20426;-90
2021/10/08 00:21:27;;;;;;;5.60;5.05;;;9.50;92.80;;;;;;4895010;29;20380;-89
2021/10/08 00:23:52;;;;;;;7.22;5.53;;;9.50;92.60;;;;;;4895199;29;20037;-90
2021/10/08 00:26:18;;;;;;;5.55;4.65;;;9.50;92.60;;;;;;4894787;29;20051;-89
2021/10/08 00:28:44;;;;;;;6.03;5.03;;;9.40;92.60;;;;;;4894667;29;20032;-89
2021/10/08 00:31:09;;;;;;;7.03;5.20;;;9.40;92.60;;;;;;4899458;29;20091;-88
2021/10/08 00:33:35;;;;;;;6.85;5.30;;;9.40;92.60;;;;;;4897361;29;20115;-89
2021/10/08 00:36:02;;;;;;;8.02;4.95;;;9.30;92.50;;;;;;4912542;29;20037;-91
2021/10/08 00:38:27;;;;;;;8.10;4.80;;;9.40;92.60;;;;;;4911630;29;20058;-90
2021/10/08 00:40:53;;;;;;;6.85;5.00;;;9.30;92.60;;;;;;4916241;29;20021;-90
2021/10/08 00:43:20;;;;;;;5.78;4.82;;;9.30;92.60;;;;;;4904430;29;20072;-89
2021/10/08 00:45:47;;;;;;;5.90;4.63;;;9.20;92.60;;;;;;4895656;29;20028;-90
2021/10/08 00:48:13;;;;;;;10.00;5.20;;;9.20;92.60;;;;;;4894817;29;20032;-89
2021/10/08 00:50:43;;;;;;;5.45;4.93;;;9.20;92.70;;;;;;4896147;29;20028;-89
2021/10/08 00:53:08;;;;;;;6.47;4.97;;;9.10;92.70;;;;;;4893899;29;20491;-89
2021/10/08 00:55:39;;;;;;;6.53;5.45;;;9.10;92.70;;;;;;4894949;29;20107;-89
2021/10/08 00:58:05;;;;;;;7.07;5.07;;;9.10;92.70;;;;;;4885129;29;20056;-89
2021/10/08 01:00:30;;;;;;;7.35;4.72;;;9.10;92.70;;;;;;4885914;29;20025;-90
2021/10/08 01:02:56;;;;;;;5.65;4.97;;;9.10;92.80;;;;;;4894512;29;20034;-89
2021/10/08 01:05:22;;;;;;;6.55;5.03;;;9.00;92.70;;;;;;4894727;29;20132;-89
2021/10/08 01:07:49;;;;;;;6.28;4.88;;;9.00;92.80;;;;;;4894367;29;20025;-89
2021/10/08 01:10:15;;;;;;;9.40;5.60;;;9.00;92.80;;;;;;4891426;29;20028;-90
2021/10/08 01:12:41;;;;;;;5.72;5.05;;;8.90;92.90;;;;;;4894094;29;20028;-89
2021/10/08 01:15:08;;;;;;;7.97;5.93;;;8.90;92.90;;;;;;4895102;29;20051;-89
2021/10/08 01:17:33;;;;;;;9.15;5.63;;;8.90;92.90;;;;;;4896570;29;20068;-90
2021/10/08 01:20:08;;;;;;;6.80;5.57;;;8.90;92.90;;;;;;4896912;29;20037;-89
2021/10/08 01:22:34;;;;;;;6.55;5.22;;;8.90;92.90;;;;;;4894524;29;20399;-90
2021/10/08 01:25:00;;;;;;;7.70;5.78;;;8.90;93.00;;;;;;4895669;29;20029;-90
2021/10/08 01:27:26;;;;;;;6.45;4.88;;;8.90;93.00;;;;;;4897299;29;20025;-89
2021/10/08 01:29:57;;;;;;;8.10;5.40;;;8.90;93.00;;;;;;4898471;29;20108;-89
2021/10/08 01:32:24;;;;;;;5.72;5.13;;;8.90;93.10;;;;;;4896453;29;20039;-89
2021/10/08 01:34:50;;;;;;;7.55;5.00;;;8.90;93.00;;;;;;4895589;29;20065;-88
2021/10/08 01:37:16;;;;;;;7.80;5.45;;;8.90;93.00;;;;;;4896662;29;20052;-89
2021/10/08 01:39:42;;;;;;;7.05;5.40;;;8.90;93.00;;;;;;4885338;29;20033;-91
2021/10/08 01:42:08;;;;;;;6.70;5.63;;;8.90;93.00;;;;;;4898544;29;20478;-89
2021/10/08 01:44:35;;;;;;;6.30;5.43;;;8.80;92.90;;;;;;4897855;29;20053;-89
2021/10/08 01:47:01;;;;;;;8.85;5.90;;;8.80;92.90;;;;;;4897789;29;20032;-90
2021/10/08 01:49:26;;;;;;;6.38;5.68;;;8.80;93.00;;;;;;4899361;29;20116;-90
2021/10/08 01:51:52;;;;;;;6.22;4.82;;;8.80;93.00;;;;;;4897967;29;20047;-90
2021/10/08 01:54:18;;;;;;;8.40;5.97;;;8.80;93.00;;;;;;4897419;29;20179;-89
2021/10/08 01:56:46;;;;;;;9.32;6.40;;;8.70;93.00;;;;;;4898875;29;20033;-90
2021/10/08 01:59:13;;;;;;;7.80;6.72;;;8.70;93.00;;;;;;4897918;29;20064;-90
2021/10/08 02:01:38;;;;;;;8.60;6.38;;;8.60;93.00;;;;;;4902821;29;20167;-90
2021/10/08 02:04:05;;;;;;;8.90;6.07;;;8.60;93.10;;;;;;4897331;29;20037;-90
2021/10/08 02:06:30;;;;;;;7.28;5.90;;;8.60;93.10;;;;;;4898782;29;20033;-90
2021/10/08 02:08:56;;;;;;;12.18;6.93;;;8.50;93.20;;;;;;4894908;29;20028;-90
2021/10/08 02:11:22;;;;;;;9.05;6.72;;;8.60;93.20;;;;;;4896052;29;20028;-90
2021/10/08 02:13:48;;;;;;;8.32;6.45;;;8.50;93.30;;;;;;4897381;29;20029;-90
2021/10/08 02:16:13;;;;;;;10.23;6.28;;;8.50;93.30;;;;;;4898946;29;20111;-90
2021/10/08 02:18:39;;;;;;;8.60;6.53;;;8.50;93.30;;;;;;4896876;29;20532;-89
2021/10/08 02:21:04;;;;;;;10.15;7.40;;;8.50;93.60;;;;;;4896877;29;20031;-90
2021/10/08 02:23:30;;;;;;;7.97;6.75;;;8.50;93.40;;;;;;4897004;29;20438;-89
2021/10/08 02:25:56;;;;;;;12.13;6.80;;;8.50;93.40;;;;;;4891252;29;20037;-91
2021/10/08 02:28:22;;;;;;;8.65;6.85;;;8.50;93.40;;;;;;4897629;29;20027;-90
2021/10/08 02:30:47;;;;;;;12.10;7.30;;;8.40;93.40;;;;;;4897171;29;20020;-90
2021/10/08 02:33:13;;;;;;;10.23;7.25;;;8.40;93.40;;;;;;4897131;29;20043;-90
2021/10/08 02:35:39;;;;;;;8.75;6.78;;;8.40;93.50;;;;;;4897829;29;20104;-90
2021/10/08 02:38:05;;;;;;;7.85;6.97;;;8.40;93.50;;;;;;4897390;29;20032;-90
2021/10/08 02:40:30;;;;;;;9.45;7.45;;;8.40;93.50;;;;;;4897758;29;20035;-89
2021/10/08 02:42:56;;;;;;;8.13;6.78;;;8.30;93.50;;;;;;4898479;29;20024;-89
2021/10/08 02:45:22;;;;;;;11.20;7.20;;;8.30;93.60;;;;;;4890288;29;20044;-90
2021/10/08 02:47:47;;;;;;;10.05;7.65;;;8.30;93.70;;;;;;4906906;29;20052;-91
2021/10/08 02:50:13;;;;;;;11.68;8.00;;;8.30;93.70;;;;;;4916875;29;20081;-90
2021/10/08 02:52:39;;;;;;;13.20;8.65;;;8.30;93.70;;;;;;4916419;29;20089;-90
2021/10/08 02:55:06;;;;;;;10.68;8.45;;;8.30;93.70;;;;;;4913815;29;20021;-90
2021/10/08 02:57:32;;;;;;;11.40;8.38;;;8.30;93.70;;;;;;4898354;29;20092;-89
2021/10/08 02:59:58;;;;;;;11.50;8.55;;;8.30;93.80;;;;;;4896823;29;20032;-90
2021/10/08 03:02:23;;;;;;;13.95;9.73;;;8.30;93.80;;;;;;4896055;29;20115;-91
2021/10/08 03:04:49;;;;;;;14.93;9.13;;;8.30;93.80;;;;;;4896551;29;20211;-90
2021/10/08 03:07:15;;;;;;;14.63;9.68;;;8.20;94.00;;;;;;4897455;29;20115;-90
2021/10/08 03:09:40;;;;;;;12.02;9.25;;;8.30;93.80;;;;;;4893409;29;20168;-90
2021/10/08 03:12:06;;;;;;;12.50;9.32;;;8.30;93.90;;;;;;4896885;29;20163;-90
2021/10/08 03:14:31;;;;;;;11.02;8.85;;;8.20;93.90;;;;;;4895995;29;20065;-90
2021/10/08 03:16:57;;;;;;;11.25;8.88;;;8.20;94.00;;;;;;4896194;29;20113;-90
2021/10/08 03:19:23;;;;;;;12.98;10.40;;;8.20;94.00;;;;;;4896046;29;20158;-90
2021/10/08 03:21:49;;;;;;;13.13;9.98;;;8.20;94.00;;;;;;4897457;29;20024;-90
2021/10/08 03:24:14;;;;;;;12.70;9.13;;;8.20;94.10;;;;;;4896310;29;20036;-90
2021/10/08 03:26:40;;;;;;;11.77;8.70;;;8.30;94.10;;;;;;4892858;29;20021;-90
2021/10/08 03:29:06;;;;;;;11.98;8.30;;;8.20;94.10;;;;;;4891445;29;20092;-91
2021/10/08 03:31:32;;;;;;;11.73;8.05;;;8.20;94.30;;;;;;4896097;29;20047;-90
2021/10/08 03:33:59;;;;;;;13.07;7.78;;;8.30;94.10;;;;;;4895645;29;20037;-90
2021/10/08 03:36:39;;;;;;;11.00;8.13;;;8.30;94.10;;;;;;4895852;29;20033;-90
2021/10/08 03:39:06;;;;;;;10.57;7.47;;;8.20;94.00;;;;;;4893276;29;20520;-90
2021/10/08 03:41:32;;;;;;;11.13;7.60;;;8.20;94.20;;;;;;4895665;29;20626;-89
2021/10/08 03:44:01;;;;;;;8.30;6.50;;;8.20;94.10;;;;;;4895563;29;20477;-90
2021/10/08 03:46:32;;;;;;;10.95;7.53;;;8.10;94.10;;;;;;4895807;29;20055;-89
2021/10/08 03:51:33;;;;;;;12.80;8.05;;;8.10;94.10;;;;;;4897373;29;20047;-89
2021/10/08 03:53:59;;;;;;;11.43;7.85;;;8.10;94.10;;;;;;4895432;29;20401;-89
2021/10/08 03:56:25;;;;;;;12.50;8.98;;;8.00;94.00;;;;;;4895694;29;20120;-91
2021/10/08 03:58:51;;;;;;;11.48;8.07;;;8.00;94.10;;;;;;4895675;29;20025;-90
2021/10/08 04:01:17;;;;;;;12.93;8.57;;;8.00;94.10;;;;;;4895769;29;20127;-90
2021/10/08 04:03:43;;;;;;;11.25;8.82;;;8.00;94.10;;;;;;4895499;29;20462;-89
2021/10/08 04:06:09;;;;;;;14.45;10.07;;;8.00;94.10;;;;;;4895846;29;20052;-90
2021/10/08 04:08:34;;;;;;;11.50;9.25;;;8.00;94.10;;;;;;4891770;29;20477;-90
2021/10/08 04:11:00;;;;;;;13.68;9.05;;;8.00;94.10;;;;;;4895401;29;20052;-89
2021/10/08 04:13:26;;;;;;;12.23;8.10;;;8.00;94.20;;;;;;4896620;29;20456;-89
2021/10/08 04:15:51;;;;;;;15.18;10.13;;;8.00;94.20;;;;;;4899633;29;20044;-89
2021/10/08 04:18:17;;;;;;;11.50;8.77;;;8.00;94.10;;;;;;4894907;29;20039;-90
2021/10/08 04:20:43;;;;;;;13.30;8.48;;;8.00;94.20;;;;;;4897119;29;20072;-89
2021/10/08 04:23:08;;;;;;;10.68;8.55;;;8.00;94.20;;;;;;4894846;29;20024;-90
2021/10/08 04:25:34;;;;;;;14.82;8.75;;;8.00;94.20;;;;;;4892774;29;20025;-90
2021/10/08 04:28:00;;;;;;;12.10;9.00;;;8.00;94.10;;;;;;4896821;29;20028;-89
2021/10/08 04:30:26;;;;;;;14.68;10.40;;;8.00;94.10;;;;;;4895145;29;20085;-89
2021/10/08 04:32:52;;;;;;;18.27;12.82;;;8.00;94.10;;;;;;4895251;29;20036;-89
2021/10/08 04:35:17;;;;;;;17.40;12.32;;;7.90;94.10;;;;;;4896181;29;20035;-89
2021/10/08 04:37:43;;;;;;;21.42;13.95;;;8.00;94.10;;;;;;4894380;29;20032;-89
2021/10/08 04:40:09;;;;;;;15.30;11.25;;;7.90;94.10;;;;;;4887908;29;20113;-89
2021/10/08 04:42:35;;;;;;;16.33;10.55;;;7.90;94.10;;;;;;4895994;29;20031;-90
2021/10/08 04:45:01;;;;;;;17.45;10.35;;;7.80;94.10;;;;;;4895709;29;20020;-88
2021/10/08 04:47:26;;;;;;;12.88;10.00;;;7.80;94.10;;;;;;4900665;29;20033;-89
2021/10/08 04:49:52;;;;;;;13.57;9.60;;;7.80;94.10;;;;;;4905161;29;20457;-89
2021/10/08 04:52:18;;;;;;;12.20;10.30;;;7.80;94.10;;;;;;4896740;29;20089;-89
2021/10/08 04:54:44;;;;;;;13.60;10.13;;;7.80;94.00;;;;;;4902616;29;20088;-91
2021/10/08 04:57:09;;;;;;;12.95;9.20;;;7.70;94.00;;;;;;4916359;29;20081;-89
2021/10/08 04:59:35;;;;;;;13.45;10.13;;;7.70;94.10;;;;;;4911120;29;20069;-91
2021/10/08 05:02:01;;;;;;;12.80;9.43;;;7.70;94.10;;;;;;4917850;29;20052;-91
2021/10/08 05:04:27;;;;;;;11.70;9.07;;;7.70;94.10;;;;;;4899333;29;20401;-89
2021/10/08 05:06:53;;;;;;;11.88;9.63;;;7.70;94.10;;;;;;4900685;29;20036;-89
2021/10/08 05:09:18;;;;;;;13.52;9.45;;;7.70;94.10;;;;;;4895144;29;20031;-89
2021/10/08 05:11:44;;;;;;;10.77;9.13;;;7.60;94.10;;;;;;4895438;29;20029;-89
2021/10/08 05:14:13;;;;;;;13.00;9.40;;;7.70;94.10;;;;;;4897898;29;20036;-90
2021/10/08 05:16:39;;;;;;;11.40;9.18;;;7.70;94.10;;;;;;4898392;29;20033;-89
2021/10/08 05:19:05;;;;;;;14.60;9.05;;;7.70;94.10;;;;;;4898488;29;20025;-89
2021/10/08 05:21:31;;;;;;;11.52;9.38;;;7.70;94.10;;;;;;4895320;29;20402;-90
2021/10/08 05:23:56;;;;;;;12.85;9.70;;;7.60;94.00;;;;;;4897812;29;20037;-89
2021/10/08 05:26:22;;;;;;;16.67;10.45;;;7.70;94.10;;;;;;4892679;29;20037;-89
2021/10/08 05:28:47;;;;;;;16.95;10.85;;;7.70;94.10;;;;;;4898335;29;20025;-91
2021/10/08 05:31:13;;;;;;;15.80;10.60;;;7.70;94.10;;;;;;4902149;29;20111;-90
2021/10/08 05:33:39;;;;;;;16.23;9.93;;;7.70;94.10;;;;;;4898772;29;20029;-91
2021/10/08 05:36:05;;;;;;;14.63;9.95;;;7.60;94.10;;;;;;4898075;29;20064;-90
2021/10/08 05:41:00;;;;;;;15.35;10.55;;;7.60;94.10;;;;;;4876723;29;20122;-85
2021/10/08 05:43:26;;;;;;;15.10;9.88;;;7.60;94.10;;;;;;4880220;29;20021;-85
2021/10/08 05:45:52;;;;;;;14.77;9.73;;;7.60;94.10;;;;;;4898295;29;20418;-85
2021/10/08 05:48:18;;;;;;;17.20;10.52;;;7.60;94.10;;;;;;4881833;29;20025;-85
2021/10/08 05:50:43;;;;;;;15.25;10.25;;;7.60;94.10;;;;;;4881499;29;20038;-84
2021/10/08 05:53:09;;;;;;;13.52;9.45;;;7.70;94.10;;;;;;4881808;29;20025;-83
2021/10/08 05:55:36;;;;;;;15.25;11.07;;;7.70;94.10;;;;;;4875912;29;20140;-86
2021/10/08 05:58:02;;;;;;;15.73;11.43;;;7.60;94.10;;;;;;4876967;29;20032;-85
2021/10/08 06:00:27;;;;;;;13.52;10.40;;;7.60;94.10;;;;;;4878282;29;20060;-85
2021/10/08 06:02:53;;;;;;;14.43;9.88;;;7.70;94.20;;;;;;4879426;29;20111;-84
2021/10/08 06:05:19;;;;;;;13.15;9.77;;;7.70;94.20;;;;;;4876505;29;20098;-85
2021/10/08 06:07:45;;;;;;;13.40;10.73;;;7.70;94.40;;;;;;4879131;29;20025;-84
2021/10/08 06:10:11;;;;;;;18.45;11.20;;;7.70;94.20;;;;;;4881870;29;20116;-85
2021/10/08 06:12:36;;;;;;;12.68;9.45;;;7.80;94.20;;;;;;4879071;29;20632;-86
2021/10/08 06:15:03;;;;;;;18.20;10.60;;;7.80;94.30;;;;;;4884530;29;20152;-83
2021/10/08 06:17:28;;;;;;;14.85;10.00;;;7.80;94.30;;;;;;4867323;29;20085;-85
2021/10/08 06:19:54;;;;;;;16.05;10.43;;;7.90;94.30;;;;;;4862703;29;20030;-86
2021/10/08 06:22:20;;;;;;;14.10;10.68;;;7.90;94.30;;;;;;4863641;29;20725;-86
2021/10/08 06:24:45;;;;;;;17.08;11.60;;;7.90;94.30;;;;;;4869667;29;20033;-82
2021/10/08 06:27:11;;;;;;;16.33;11.43;;;7.90;94.30;;;;;;4881666;29;20052;-85
2021/10/08 06:29:36;;;;;;;17.98;11.80;;;8.00;94.40;;;;;;4881011;29;20032;-82
2021/10/08 06:32:02;;;;;;;18.02;11.50;;;8.00;94.40;;;;;;4880973;29;20429;-84
2021/10/08 06:34:28;;;;;;;13.20;9.95;;;8.00;94.40;;;;;;4878505;29;20033;-82
2021/10/08 06:36:53;;;;;;;18.45;11.35;;;8.10;94.50;;;;;;4875625;29;20064;-86
2021/10/08 06:39:19;;;;;;;13.48;10.82;;;8.20;94.50;;;;;;4882981;29;20095;-83
2021/10/08 06:41:45;;;;;;;13.52;9.60;;;8.30;94.50;;;;;;4880744;29;20409;-83
2021/10/08 06:44:11;;;;;;;12.65;9.57;;;8.40;94.50;;;;;;4877667;29;20025;-88
2021/10/08 06:46:36;;;;;;;12.95;9.70;;;8.60;94.70;;;;;;4888234;29;20067;-86
2021/10/08 06:49:02;;;;;;;12.07;9.13;;;8.70;94.40;;;;;;4880606;29;20128;-87
2021/10/08 06:51:28;;;;;;;14.27;9.48;;;8.80;94.40;;;;;;4873711;29;20040;-85
2021/10/08 06:53:53;;;;;;;12.65;9.73;;;9.00;94.40;;;;;;4868354;29;20079;-84
2021/10/08 06:56:19;;;;;;;15.68;10.18;;;9.00;94.40;;;;;;4879160;29;20537;-82
2021/10/08 06:58:44;;;;;;;13.50;9.30;;;9.10;94.40;;;;;;4881100;29;20028;-85
2021/10/08 07:01:10;;;;;;;16.45;10.35;;;9.20;94.40;;;;;;4865685;29;20032;-85
2021/10/08 07:03:36;;;;;;;14.13;9.48;;;9.20;94.30;;;;;;4873589;29;20029;-85
2021/10/08 07:06:01;;;;;;;14.82;10.43;;;9.30;94.30;;;;;;4871010;29;20033;-84
2021/10/08 07:08:27;;;;;;;15.27;10.35;;;9.30;94.30;;;;;;4875856;29;20055;-87
2021/10/08 07:10:52;;;;;;;13.40;9.60;;;9.30;94.30;;;;;;4878686;29;20173;-85
2021/10/08 07:13:18;;;;;;;14.82;9.60;;;9.40;94.30;;;;;;4876131;29;20398;-85
2021/10/08 07:15:44;;;;;;;13.20;9.32;;;9.40;94.30;;;;;;4875025;29;20029;-83
2021/10/08 07:18:14;;;;;;;12.57;9.57;;;9.40;94.30;;;;;;4876012;29;20051;-85
2021/10/08 07:20:39;;;;;;;13.57;9.60;;;9.40;94.30;;;;;;4876258;29;20554;-85
2021/10/08 07:23:06;;;;;;;14.05;9.40;;;9.40;94.40;;;;;;4878050;29;20021;-86
2021/10/08 07:25:31;;;;;;;13.00;8.85;;;9.40;94.40;;;;;;4881818;29;20057;-86
2021/10/08 07:27:57;;;;;;;13.20;9.95;;;9.50;94.40;;;;;;4881496;29;20033;-86
2021/10/08 07:30:23;;;;;;;12.93;9.18;;;9.50;94.40;;;;;;4881092;29;20123;-84
2021/10/08 07:32:49;;;;;;;13.02;8.40;;;9.50;94.40;;;;;;4880893;29;20496;-86
2021/10/08 07:35:15;;;;;;;12.20;9.07;;;9.60;94.50;;;;;;4867286;29;20034;-85
2021/10/08 07:37:42;;;;;;;10.40;8.23;;;9.60;94.50;;;;;;4875579;29;20052;-85
2021/10/08 07:40:10;;;;;;;16.77;11.25;;;9.60;94.50;;;;;;4894344;29;20116;-84
2021/10/08 07:42:36;;;;;;;16.77;9.77;;;9.60;94.50;;;;;;4871900;29;20033;-83
2021/10/08 07:45:06;;;;;;;11.98;9.00;;;9.70;94.60;;;;;;4876446;29;20029;-84
2021/10/08 07:47:32;;;;;;;13.88;9.73;;;9.70;94.60;;;;;;4880322;29;20041;-84
2021/10/08 07:49:58;;;;;;;14.43;9.73;;;9.70;94.60;;;;;;4877762;29;20062;-85
2021/10/08 07:52:24;;;;;;;15.30;9.95;;;9.80;94.60;;;;;;4877467;29;20524;-84
2021/10/08 07:54:50;;;;;;;13.00;9.05;;;9.80;94.70;;;;;;4881508;29;20037;-86
2021/10/08 07:57:16;;;;;;;12.52;8.90;;;9.90;94.70;;;;;;4881815;29;20057;-86
2021/10/08 07:59:41;;;;;;;11.65;8.30;;;9.90;94.70;;;;;;4873503;29;20053;-86
2021/10/08 08:02:07;;;;;;;12.93;8.48;;;9.90;94.70;;;;;;4870260;29;20532;-82
2021/10/08 08:04:33;;;;;;;13.40;8.80;;;10.00;94.70;;;;;;4866864;29;20033;-85
2021/10/08 08:06:59;;;;;;;13.13;8.70;;;10.10;94.80;;;;;;4874129;29;20029;-85
2021/10/08 08:09:24;;;;;;;13.82;8.73;;;10.10;94.80;;;;;;4864875;29;20038;-86
2021/10/08 08:11:50;;;;;;;14.77;8.93;;;10.10;94.70;;;;;;4880395;29;20041;-86
2021/10/08 08:14:16;;;;;;;11.65;7.93;;;10.20;94.80;;;;;;4871662;29;20040;-85
2021/10/08 08:16:41;;;;;;;13.10;8.50;;;10.20;94.80;;;;;;4892592;29;20115;-83
2021/10/08 08:19:09;;;;;;;12.35;7.93;;;10.30;94.80;;;;;;4885290;29;20029;-87
2021/10/08 08:21:36;;;;;;;14.43;8.52;;;10.30;94.80;;;;;;4880693;29;20021;-85
2021/10/08 08:24:02;;;;;;;13.65;8.48;;;10.30;94.80;;;;;;4879157;29;20029;-84
2021/10/08 08:26:27;;;;;;;14.68;8.65;;;10.30;94.80;;;;;;4879725;29;20041;-84
2021/10/08 08:28:53;;;;;;;17.10;10.02;;;10.40;94.80;;;;;;4880250;29;20494;-86
2021/10/08 08:31:19;;;;;;;15.85;10.48;;;10.40;94.90;;;;;;4870060;29;20025;-84
2021/10/08 08:33:44;;;;;;;13.80;8.88;;;10.50;94.90;;;;;;4864793;29;20490;-85
2021/10/08 08:36:11;;;;;;;14.52;8.60;;;10.50;94.90;;;;;;4859923;29;20494;-85
2021/10/08 08:38:36;;;;;;;14.85;8.35;;;10.50;94.90;;;;;;4876020;29;20025;-87
2021/10/08 08:41:02;;;;;;;13.27;9.32;;;10.50;94.90;;;;;;4878981;29;20486;-84
2021/10/08 08:43:28;;;;;;;14.40;8.80;;;10.60;94.90;;;;;;4877899;29;20037;-87
2021/10/08 08:45:55;;;;;;;15.10;11.52;;;10.60;95.00;;;;;;4878130;29;20040;-87
2021/10/08 08:48:23;;;;;;;12.43;8.77;;;10.60;95.00;;;;;;4883031;29;20033;-86
2021/10/08 08:50:48;;;;;;;14.23;10.05;;;10.60;95.00;;;;;;4879497;29;20041;-85
2021/10/08 08:53:18;;;;;;;13.38;8.95;;;10.70;95.00;;;;;;4881959;29;20557;-83
2021/10/08 08:55:44;;;;;;;14.60;9.50;;;10.70;95.00;;;;;;4869691;29;20028;-82
2021/10/08 08:58:09;;;;;;;13.57;9.05;;;10.80;95.00;;;;;;4880700;29;20040;-86
2021/10/08 09:00:35;;;;;;;13.75;9.07;;;10.80;95.00;;;;;;4876755;29;20061;-85
2021/10/08 09:03:03;;;;;;;15.18;9.77;;;10.80;95.10;;;;;;4881845;29;20039;-85
2021/10/08 09:05:35;;;;;;;16.00;8.75;;;10.80;95.00;;;;;;4882335;29;20502;-84
2021/10/08 09:08:06;;;;;;;18.67;9.93;;;10.80;95.00;;;;;;4880719;29;20037;-83
2021/10/08 09:10:37;;;;;;;16.10;9.75;;;10.80;95.00;;;;;;4878547;29;20097;-84
2021/10/08 09:13:04;;;;;;;18.23;9.95;;;10.90;95.10;;;;;;4869497;29;20066;-84
2021/10/08 09:16:02;;;;;;;19.58;9.65;;;10.90;95.00;;;;;;4880667;29;20031;-86
2021/10/08 09:18:30;;;;;;;14.05;10.02;;;10.90;95.10;;;;;;4879948;29;20044;-83
2021/10/08 09:21:09;;;;;;;16.63;10.50;;;10.90;95.00;;;;;;4875794;29;20032;-84
2021/10/08 09:23:41;;;;;;;15.90;10.43;;;10.90;95.00;;;;;;4865420;29;20119;-84
2021/10/08 09:26:14;;;;;;;26.77;16.42;;;11.00;95.00;;;;;;4894541;29;20025;-84
2021/10/08 09:28:57;;;;;;;14.48;10.15;;;11.00;95.00;;;;;;4880344;29;20036;-83
2021/10/08 09:31:40;;;;;;;13.82;9.45;;;11.10;95.00;;;;;;4880611;29;20029;-84
2021/10/08 09:34:10;;;;;;;15.80;10.23;;;11.10;95.00;;;;;;4879879;29;20029;-83
2021/10/08 09:36:37;;;;;;;15.77;9.73;;;11.10;95.00;;;;;;4879666;29;20119;-83
2021/10/08 09:39:22;;;;;;;13.68;9.73;;;11.10;94.90;;;;;;4874735;29;20038;-84
2021/10/08 09:41:59;;;;;;;14.40;9.75;;;11.20;95.00;;;;;;4879038;29;20090;-84
2021/10/08 09:44:27;;;;;;;17.73;12.13;;;11.20;95.00;;;;;;4880246;29;20021;-85
2021/10/08 09:47:09;;;;;;;16.60;9.57;;;11.20;94.90;;;;;;4881233;29;20033;-83
2021/10/08 09:49:36;;;;;;;11.23;8.75;;;11.20;95.00;;;;;;4879256;29;20029;-85
2021/10/08 09:52:26;;;;;;;15.25;9.27;;;11.30;94.90;;;;;;4875801;29;20048;-86
2021/10/08 09:55:11;;;;;;;14.13;9.65;;;11.30;95.00;;;;;;4877402;29;20108;-83
2021/10/08 09:57:49;;;;;;;16.15;9.60;;;11.40;95.00;;;;;;4881344;29;20033;-86
2021/10/08 10:00:46;;;;;;;16.75;9.57;;;11.30;94.90;;;;;;4880979;29;20036;-87
2021/10/08 10:03:15;;;;;;;13.02;8.70;;;11.40;94.90;;;;;;4873619;29;20044;-84
2021/10/08 10:05:41;;;;;;;15.38;9.52;;;11.40;94.90;;;;;;4876548;29;20017;-85
2021/10/08 10:08:07;;;;;;;13.85;8.80;;;11.50;94.90;;;;;;4877533;29;20478;-85
2021/10/08 10:10:34;;;;;;;15.18;9.18;;;11.50;94.80;;;;;;4896321;29;20093;-84
2021/10/08 10:13:01;;;;;;;15.90;9.50;;;11.50;94.80;;;;;;4881821;29;20031;-85
2021/10/08 10:15:27;;;;;;;16.95;9.13;;;11.60;94.90;;;;;;4881183;29;20033;-84
2021/10/08 10:17:54;;;;;;;18.77;9.00;;;11.60;94.80;;;;;;4878507;29;20032;-84
2021/10/08 10:20:20;;;;;;;14.40;9.02;;;11.70;94.90;;;;;;4884605;29;20040;-84
2021/10/08 10:22:48;;;;;;;15.07;9.73;;;11.70;94.90;;;;;;4869195;29;20394;-84
2021/10/08 10:25:14;;;;;;;14.68;10.10;;;11.80;94.80;;;;;;4881114;29;20040;-84
2021/10/08 10:27:41;;;;;;;16.50;9.95;;;11.80;94.80;;;;;;4882081;29;20064;-85
2021/10/08 10:30:09;;;;;;;17.38;9.52;;;11.90;94.80;;;;;;4879332;29;20037;-83
2021/10/08 10:32:35;;;;;;;14.30;9.63;;;11.90;94.70;;;;;;4882453;29;20029;-86
2021/10/08 10:35:03;;;;;;;15.57;10.27;;;11.90;94.70;;;;;;4880276;29;20459;-83
2021/10/08 10:37:41;;;;;;;15.70;9.00;;;11.90;94.70;;;;;;4881295;29;20036;-86
2021/10/08 10:40:16;;;;;;;13.10;9.00;;;12.00;94.70;;;;;;4878510;29;20462;-85
2021/10/08 10:42:42;;;;;;;14.80;10.98;;;12.10;94.70;;;;;;4877670;29;20100;-84
2021/10/08 10:45:14;;;;;;;14.60;9.55;;;12.10;94.70;;;;;;4888247;29;20058;-84
2021/10/08 10:47:42;;;;;;;13.80;9.60;;;12.20;94.60;;;;;;4879503;29;20097;-86
2021/10/08 10:50:39;;;;;;;14.15;9.55;;;12.30;94.60;;;;;;4881298;29;20391;-86
2021/10/08 10:53:05;;;;;;;14.13;9.60;;;12.30;94.60;;;;;;4881592;29;20036;-84
2021/10/08 10:55:34;;;;;;;14.63;9.88;;;12.40;94.60;;;;;;4882338;29;20037;-86
2021/10/08 10:58:08;;;;;;;15.88;8.82;;;12.50;94.60;;;;;;4880154;29;20041;-83
2021/10/08 11:00:41;;;;;;;14.05;8.73;;;12.60;94.60;;;;;;4881096;29;20405;-84
2021/10/08 11:03:17;;;;;;;16.58;9.93;;;12.60;94.50;;;;;;4885420;29;20029;-85
2021/10/08 11:06:10;;;;;;;16.30;9.73;;;12.70;94.50;;;;;;4889347;29;20025;-84
2021/10/08 11:09:07;;;;;;;15.25;9.68;;;12.90;94.50;;;;;;4858748;29;20045;-85
2021/10/08 11:11:33;;;;;;;14.43;9.45;;;12.90;94.50;;;;;;4864942;29;20569;-86
2021/10/08 11:14:16;;;;;;;19.05;10.38;;;13.00;94.40;;;;;;4873757;29;20070;-85
2021/10/08 11:16:42;;;;;;;14.98;9.57;;;13.10;94.40;;;;;;4871612;29;20112;-87
2021/10/08 11:19:38;;;;;;;16.33;10.18;;;13.20;94.30;;;;;;4879546;29;20125;-87
2021/10/08 11:22:04;;;;;;;17.35;10.07;;;13.20;94.20;;;;;;4878024;29;20558;-85
2021/10/08 11:24:30;;;;;;;16.05;10.52;;;13.30;94.20;;;;;;4876564;29;20112;-86
2021/10/08 11:27:02;;;;;;;15.98;10.25;;;13.30;94.20;;;;;;4874799;29;20420;-85
2021/10/08 11:29:30;;;;;;;;;;;13.40;94.20;;;;;;4878034;29;20077;-85
2021/10/08 11:32:10;;;;;;;14.40;9.65;;;13.50;94.10;;;;;;4876524;29;20369;-86
2021/10/08 11:34:53;;;;;;;17.35;10.95;;;13.50;94.10;;;;;;4876284;29;20037;-84
2021/10/08 11:37:20;;;;;;;17.58;11.45;;;13.60;94.10;;;;;;4861236;29;20516;-85
2021/10/08 11:39:48;;;;;;;16.38;11.30;;;13.70;94.10;;;;;;4941551;23;20053;-67
2021/10/08 11:42:18;;;;;;;17.95;10.63;;;13.70;94.00;;;;;;4887160;29;20044;-68
2021/10/08 11:47:39;;;;;;;13.63;9.00;;;13.80;93.90;;;;;;4892377;29;20120;-69
2021/10/08 11:52:44;;;;;;;15.93;10.25;;;14.00;93.90;;;;;;4891726;29;20043;-69
2021/10/08 11:55:18;;;;;;;15.77;9.95;;;14.10;93.80;;;;;;4881845;29;20029;-68
2021/10/08 11:57:52;;;;;;;17.45;10.88;;;14.20;93.70;;;;;;4890194;29;20037;-69
2021/10/08 12:00:20;;;;;;;16.95;9.88;;;14.20;93.60;;;;;;4896184;29;20017;-69
2021/10/08 12:02:59;;;;;;;14.10;9.18;;;14.20;93.60;;;;;;4893989;29;20041;-69
2021/10/08 12:05:25;;;;;;;20.23;10.25;;;14.30;93.50;;;;;;4895681;29;20354;-69
2021/10/08 12:08:01;;;;;;;14.35;10.13;;;14.30;93.50;;;;;;4894994;29;20020;-69
2021/10/08 12:10:27;;;;;;;14.77;9.18;;;14.30;93.40;;;;;;4896058;29;20024;-67
2021/10/08 12:12:56;;;;;;;14.30;9.93;;;14.30;93.40;;;;;;4894621;29;20032;-67
2021/10/08 12:15:33;;;;;;;16.70;9.65;;;14.30;93.40;;;;;;4877975;29;20033;-67
2021/10/08 12:18:02;;;;;;;15.95;10.20;;;14.40;93.40;;;;;;4890643;29;20096;-67
2021/10/08 12:20:33;;;;;;;16.08;10.95;;;14.40;93.40;;;;;;4893626;29;20548;-67
2021/10/08 12:23:14;;;;;;;16.98;10.05;;;14.40;93.30;;;;;;4892250;29;20036;-67
2021/10/08 12:25:41;;;;;;;16.80;11.00;;;14.40;93.20;;;;;;4895309;29;20207;-67
2021/10/08 12:28:10;;;;;;;14.60;9.90;;;14.40;93.20;;;;;;4893630;29;20325;-67
2021/10/08 12:30:53;;;;;;;16.77;10.57;;;14.40;93.20;;;;;;4895607;29;20032;-67
2021/10/08 12:33:23;;;;;;;;;;;14.40;93.10;;;;;;4891583;29;20044;-67
2021/10/08 12:36:11;;;;;;;16.70;10.13;;;14.40;93.10;;;;;;4894896;29;19912;-67
2021/10/08 12:38:55;;;;;;;18.17;10.60;;;14.40;93.10;;;;;;4891960;29;20061;-67
2021/10/08 12:42:00;;;;;;;17.75;10.60;;;14.50;93.20;;;;;;4890180;29;20096;-67
2021/10/08 12:44:29;;;;;;;14.95;9.60;;;14.50;93.40;;;;;;4879380;29;20036;-67
2021/10/08 12:46:58;;;;;;;15.05;9.68;;;14.60;93.10;;;;;;4880483;29;20033;-67
2021/10/08 12:49:24;;;;;;;14.82;10.15;;;14.60;93.10;;;;;;4892365;29;20025;-68
2021/10/08 12:51:53;;;;;;;17.02;10.48;;;14.70;93.00;;;;;;4892090;29;20039;-67
2021/10/08 12:54:25;;;;;;;15.63;10.43;;;14.70;92.90;;;;;;4889558;29;20040;-67
2021/10/08 12:57:11;;;;;;;16.70;10.35;;;14.70;92.90;;;;;;4879379;29;20025;-67
2021/10/08 12:59:50;;;;;;;15.90;10.25;;;14.70;92.90;;;;;;4892463;29;20096;-67